KTBN/TBN METAR and TAF weather

Enter ICAO airport designator
Station Type Date Time Source
KTBN METAR 2022/01/27 23:56 UTC NOAA

KTBN 272356Z AUTO 32007KT 10SM FEW038 FEW190 03/M04 A3022 RMK AO2 SLP246 T00331044 10060 20023 51013


Station Type Date Time Source
KTBN Decoded METAR 2022/01/27 23:56 UTC NOAA

Fort Leonard Wood, MO, United States (KTBN) 37-44N 092-08W
Jan 27, 2022 - 06:56 PM EST / 2022.01.27 2356 UTC
Wind: from the NW (320 degrees) at 8 MPH (7 KT):0
Visibility: 10 mile(s):0
Sky conditions: mostly clear
Temperature: 37.9 F (3.3 C)
Dew Point: 24.1 F (-4.4 C)
Relative Humidity: 56%
Pressure (altimeter): 30.22 in. Hg (1023 hPa)
Pressure tendency: 0.04 inches (1.3 hPa) higher than three hours ago
ob: KTBN 272356Z AUTO 32007KT 10SM FEW038 FEW190 03/M04 A3022 RMK AO2 SLP246 T00331044 10060 20023 51013
cycle: 0

Station Type Date Time Source
KTBN TAF UTC NOAA

Error!

Example: see airport list